Impacts TAF Board
For situational awareness. Not to be used for flight planning purposes.
IDs:

KHOU - Houston/Hobby Arpt, TX, US

Issued at 1500 UTC 05 Aug 2020
Updated at 1601 UTC 05 Aug 2020
Potential Impact None Slight Moderate High
Time1557Z 05/16Z 05/17Z 05/18Z 05/19Z 05/20Z 05/21Z 05/22Z 05/23Z 06/00Z 06/01Z 06/02Z 06/03Z 06/04Z>>
Type OBS PRVL PRVL PRVL PRVL PRVL PRVL PRVL PRVL PRVL PRVL PRVL PRVL PRVL
VIS 10 >6 >6 >6 >6 >6 >6 >6 >6 >6 >6 >6 >6 >6
CIG -- -- -- -- -- 70 70 70 70 70 120 120 120 120
Cover FEW SCT SCT SCT SCT BKN BKN BKN BKN BKN BKN BKN BKN BKN
FltCat VFR VFR VFR VFR VFR VFR VFR VFR VFR VFR VFR VFR VFR VFR
WX -- -- -- -- -- VCTS VCTS VCTS VCTS VCTS -- -- -- --
WDir 230 220 220 220 220 170 170 170 170 170 170 170 170 170
WSpd 5 6 6 6 6 9 9 9 9 9 6 6 6 6
WGst -- -- -- -- -- -- -- -- -- -- -- -- -- --
R04/22
XWnd 1 -0 -0 -0 -0 -7 -7 -7 -7 -7 -5 -5 -5 -5
HWnd -5 -6 -6 -6 -6 -5 -5 -5 -5 -5 -4 -4 -4 -4
R12/30
XWnd -5 -6 -6 -6 -6 -5 -5 -5 -5 -5 -4 -4 -4 -4
HWnd -1 0 0 0 0 7 7 7 7 7 5 5 5 5
R17/35
XWnd -4 -4 -4 -4 -4 1 1 1 1 1 1 1 1 1
HWnd 3 5 5 5 5 9 9 9 9 9 6 6 6 6
Raw TAF
KHOU 051500Z 0515/0612 22006KT P6SM FEW020 SCT060
  FM052000 17009KT P6SM VCTS SCT040CB BKN070
  FM060100 17006KT P6SM BKN120


Raw METAR
KHOU 051557Z COR 23005KT 10SM FEW250 32/24 A3001 RMK AO2 T03170239 $
KHOU 051553Z 18004KT 10SM FEW250 31/23 A3001 RMK AO2 SLP167 T03110228
KHOU 051453Z 23007KT 10SM FEW020 30/24 A3001 RMK AO2 SLP167 T03000239 51015
KHOU 051353Z 25005KT 10SM FEW150 28/24 A3001 RMK AO2 SLP166 T02830239
KHOU 051253Z 21003KT 10SM FEW150 FEW250 27/23 A2999 RMK AO2 SLP160 T02720233

METAR Board
Radar Display
Forecast Discussion
For situational awareness. Not to be used for flight planning purposes.